sensor_id;sensor_type;location;lat;lon;timestamp;P1;durP1;ratioP1;P2;durP2;ratioP2
9160;SDS011;4615;51.340;8.288;2022-09-09T00:00:38;2.47;;;1.50;;
9160;SDS011;4615;51.340;8.288;2022-09-09T00:03:07;3.20;;;1.57;;
9160;SDS011;4615;51.340;8.288;2022-09-09T00:05:38;4.13;;;1.60;;
9160;SDS011;4615;51.340;8.288;2022-09-09T00:08:11;3.70;;;1.70;;
9160;SDS011;4615;51.340;8.288;2022-09-09T00:10:40;3.90;;;1.67;;
9160;SDS011;4615;51.340;8.288;2022-09-09T00:13:11;4.20;;;1.67;;
9160;SDS011;4615;51.340;8.288;2022-09-09T00:15:43;3.33;;;1.43;;
9160;SDS011;4615;51.340;8.288;2022-09-09T00:18:13;4.87;;;1.60;;
9160;SDS011;4615;51.340;8.288;2022-09-09T00:20:42;3.00;;;1.57;;
9160;SDS011;4615;51.340;8.288;2022-09-09T00:23:14;4.23;;;1.73;;
9160;SDS011;4615;51.340;8.288;2022-09-09T00:25:46;2.43;;;1.37;;
9160;SDS011;4615;51.340;8.288;2022-09-09T00:28:18;3.80;;;1.50;;
9160;SDS011;4615;51.340;8.288;2022-09-09T00:30:45;2.73;;;1.47;;
9160;SDS011;4615;51.340;8.288;2022-09-09T00:33:13;4.03;;;1.47;;
9160;SDS011;4615;51.340;8.288;2022-09-09T00:35:42;2.73;;;1.57;;
9160;SDS011;4615;51.340;8.288;2022-09-09T00:38:10;4.27;;;1.47;;
9160;SDS011;4615;51.340;8.288;2022-09-09T00:40:41;2.70;;;1.40;;
9160;SDS011;4615;51.340;8.288;2022-09-09T00:43:16;7.13;;;1.70;;
9160;SDS011;4615;51.340;8.288;2022-09-09T00:45:59;4.13;;;1.60;;
9160;SDS011;4615;51.340;8.288;2022-09-09T00:48:33;3.53;;;1.47;;
9160;SDS011;4615;51.340;8.288;2022-09-09T00:51:03;3.60;;;1.53;;
9160;SDS011;4615;51.340;8.288;2022-09-09T00:53:33;4.20;;;1.50;;
9160;SDS011;4615;51.340;8.288;2022-09-09T00:56:06;2.97;;;1.50;;
9160;SDS011;4615;51.340;8.288;2022-09-09T00:58:34;3.97;;;1.63;;
9160;SDS011;4615;51.340;8.288;2022-09-09T01:01:02;2.50;;;1.57;;
9160;SDS011;4615;51.340;8.288;2022-09-09T01:03:33;3.23;;;1.60;;
9160;SDS011;4615;51.340;8.288;2022-09-09T01:06:01;3.63;;;1.57;;
9160;SDS011;4615;51.340;8.288;2022-09-09T01:08:36;3.43;;;1.40;;
9160;SDS011;4615;51.340;8.288;2022-09-09T01:11:07;2.40;;;1.50;;
9160;SDS011;4615;51.340;8.288;2022-09-09T01:13:36;3.33;;;1.67;;
9160;SDS011;4615;51.340;8.288;2022-09-09T01:16:04;4.10;;;1.60;;
9160;SDS011;4615;51.340;8.288;2022-09-09T01:18:32;2.97;;;1.57;;
9160;SDS011;4615;51.340;8.288;2022-09-09T01:21:01;4.57;;;1.63;;
9160;SDS011;4615;51.340;8.288;2022-09-09T01:23:35;3.13;;;1.57;;
9160;SDS011;4615;51.340;8.288;2022-09-09T01:28:48;4.73;;;1.50;;
9160;SDS011;4615;51.340;8.288;2022-09-09T01:31:18;2.80;;;1.73;;
9160;SDS011;4615;51.340;8.288;2022-09-09T01:33:46;2.60;;;1.40;;
9160;SDS011;4615;51.340;8.288;2022-09-09T01:36:14;4.47;;;1.60;;
9160;SDS011;4615;51.340;8.288;2022-09-09T01:38:44;3.10;;;1.20;;
9160;SDS011;4615;51.340;8.288;2022-09-09T01:41:10;3.20;;;1.97;;
9160;SDS011;4615;51.340;8.288;2022-09-09T01:43:36;3.00;;;1.40;;
9160;SDS011;4615;51.340;8.288;2022-09-09T01:46:04;4.13;;;1.57;;
9160;SDS011;4615;51.340;8.288;2022-09-09T01:48:31;3.57;;;1.77;;
9160;SDS011;4615;51.340;8.288;2022-09-09T01:50:58;2.80;;;1.60;;
9160;SDS011;4615;51.340;8.288;2022-09-09T01:53:24;3.00;;;1.40;;
9160;SDS011;4615;51.340;8.288;2022-09-09T01:55:53;3.73;;;1.50;;
9160;SDS011;4615;51.340;8.288;2022-09-09T01:58:24;5.17;;;1.53;;
9160;SDS011;4615;51.340;8.288;2022-09-09T02:00:56;4.73;;;1.80;;
9160;SDS011;4615;51.340;8.288;2022-09-09T02:03:26;3.17;;;1.50;;
9160;SDS011;4615;51.340;8.288;2022-09-09T02:05:55;3.63;;;1.60;;
9160;SDS011;4615;51.340;8.288;2022-09-09T02:08:24;3.87;;;1.63;;
9160;SDS011;4615;51.340;8.288;2022-09-09T02:10:53;3.80;;;1.47;;
9160;SDS011;4615;51.340;8.288;2022-09-09T02:13:21;4.77;;;1.60;;
9160;SDS011;4615;51.340;8.288;2022-09-09T02:15:50;3.77;;;1.70;;
9160;SDS011;4615;51.340;8.288;2022-09-09T02:18:19;4.50;;;1.60;;
9160;SDS011;4615;51.340;8.288;2022-09-09T02:20:49;4.70;;;1.80;;
9160;SDS011;4615;51.340;8.288;2022-09-09T02:23:16;2.30;;;1.57;;
9160;SDS011;4615;51.340;8.288;2022-09-09T02:25:43;4.90;;;1.70;;
9160;SDS011;4615;51.340;8.288;2022-09-09T02:28:11;4.63;;;1.87;;
9160;SDS011;4615;51.340;8.288;2022-09-09T02:30:40;5.10;;;1.80;;
9160;SDS011;4615;51.340;8.288;2022-09-09T02:33:08;3.97;;;1.63;;
9160;SDS011;4615;51.340;8.288;2022-09-09T02:35:35;3.30;;;1.57;;
9160;SDS011;4615;51.340;8.288;2022-09-09T02:38:05;3.20;;;1.53;;
9160;SDS011;4615;51.340;8.288;2022-09-09T02:40:33;4.77;;;1.70;;
9160;SDS011;4615;51.340;8.288;2022-09-09T02:43:00;3.70;;;1.63;;
9160;SDS011;4615;51.340;8.288;2022-09-09T02:45:29;4.50;;;1.83;;
9160;SDS011;4615;51.340;8.288;2022-09-09T02:48:02;3.27;;;1.67;;
9160;SDS011;4615;51.340;8.288;2022-09-09T02:50:29;2.63;;;1.90;;
9160;SDS011;4615;51.340;8.288;2022-09-09T02:53:01;6.90;;;2.03;;
9160;SDS011;4615;51.340;8.288;2022-09-09T02:55:35;2.70;;;1.70;;
9160;SDS011;4615;51.340;8.288;2022-09-09T02:58:04;4.07;;;1.60;;
9160;SDS011;4615;51.340;8.288;2022-09-09T03:00:32;7.10;;;1.90;;
9160;SDS011;4615;51.340;8.288;2022-09-09T03:03:00;3.60;;;1.77;;
9160;SDS011;4615;51.340;8.288;2022-09-09T03:05:27;5.60;;;1.90;;
9160;SDS011;4615;51.340;8.288;2022-09-09T03:07:54;4.13;;;1.57;;
9160;SDS011;4615;51.340;8.288;2022-09-09T03:10:20;2.77;;;1.60;;
9160;SDS011;4615;51.340;8.288;2022-09-09T03:12:48;4.80;;;1.80;;
9160;SDS011;4615;51.340;8.288;2022-09-09T03:15:15;7.10;;;1.97;;
9160;SDS011;4615;51.340;8.288;2022-09-09T03:17:41;5.07;;;2.00;;
9160;SDS011;4615;51.340;8.288;2022-09-09T03:20:08;5.57;;;2.00;;
9160;SDS011;4615;51.340;8.288;2022-09-09T03:22:35;2.37;;;1.50;;
9160;SDS011;4615;51.340;8.288;2022-09-09T03:25:01;3.53;;;1.57;;
9160;SDS011;4615;51.340;8.288;2022-09-09T03:27:27;5.00;;;1.80;;
9160;SDS011;4615;51.340;8.288;2022-09-09T03:29:55;3.57;;;1.60;;
9160;SDS011;4615;51.340;8.288;2022-09-09T03:32:22;2.77;;;1.73;;
9160;SDS011;4615;51.340;8.288;2022-09-09T03:34:50;4.00;;;1.80;;
9160;SDS011;4615;51.340;8.288;2022-09-09T03:37:17;4.33;;;1.77;;
9160;SDS011;4615;51.340;8.288;2022-09-09T03:39:43;3.20;;;1.70;;
9160;SDS011;4615;51.340;8.288;2022-09-09T03:42:11;4.97;;;1.97;;
9160;SDS011;4615;51.340;8.288;2022-09-09T03:44:39;4.00;;;1.57;;
9160;SDS011;4615;51.340;8.288;2022-09-09T03:47:07;4.03;;;1.67;;
9160;SDS011;4615;51.340;8.288;2022-09-09T03:49:33;4.00;;;1.80;;
9160;SDS011;4615;51.340;8.288;2022-09-09T03:52:00;6.27;;;1.77;;
9160;SDS011;4615;51.340;8.288;2022-09-09T03:54:26;4.20;;;1.83;;
9160;SDS011;4615;51.340;8.288;2022-09-09T03:56:53;7.47;;;2.10;;
9160;SDS011;4615;51.340;8.288;2022-09-09T03:59:19;4.03;;;1.87;;
9160;SDS011;4615;51.340;8.288;2022-09-09T04:01:46;2.77;;;1.70;;
9160;SDS011;4615;51.340;8.288;2022-09-09T04:04:14;4.10;;;1.73;;
9160;SDS011;4615;51.340;8.288;2022-09-09T04:06:40;4.53;;;1.83;;
9160;SDS011;4615;51.340;8.288;2022-09-09T04:09:07;3.50;;;1.57;;
9160;SDS011;4615;51.340;8.288;2022-09-09T04:11:33;4.07;;;1.80;;
9160;SDS011;4615;51.340;8.288;2022-09-09T04:13:59;4.20;;;1.87;;
9160;SDS011;4615;51.340;8.288;2022-09-09T04:16:26;4.80;;;1.83;;
9160;SDS011;4615;51.340;8.288;2022-09-09T04:18:52;2.40;;;1.70;;
9160;SDS011;4615;51.340;8.288;2022-09-09T04:21:20;3.70;;;1.60;;
9160;SDS011;4615;51.340;8.288;2022-09-09T04:23:48;3.10;;;1.80;;
9160;SDS011;4615;51.340;8.288;2022-09-09T04:26:14;5.37;;;2.17;;
9160;SDS011;4615;51.340;8.288;2022-09-09T04:28:41;5.33;;;2.20;;
9160;SDS011;4615;51.340;8.288;2022-09-09T04:31:07;3.67;;;1.60;;
9160;SDS011;4615;51.340;8.288;2022-09-09T04:33:34;5.33;;;2.00;;
9160;SDS011;4615;51.340;8.288;2022-09-09T04:36:01;3.27;;;1.80;;
9160;SDS011;4615;51.340;8.288;2022-09-09T04:38:29;2.73;;;1.73;;
9160;SDS011;4615;51.340;8.288;2022-09-09T04:40:55;4.57;;;1.90;;
9160;SDS011;4615;51.340;8.288;2022-09-09T04:43:22;3.00;;;1.73;;
9160;SDS011;4615;51.340;8.288;2022-09-09T04:45:51;3.63;;;2.10;;
9160;SDS011;4615;51.340;8.288;2022-09-09T04:48:17;3.33;;;1.63;;
9160;SDS011;4615;51.340;8.288;2022-09-09T04:50:44;2.47;;;1.50;;
9160;SDS011;4615;51.340;8.288;2022-09-09T04:53:11;5.90;;;1.97;;
9160;SDS011;4615;51.340;8.288;2022-09-09T04:55:39;6.67;;;2.23;;
9160;SDS011;4615;51.340;8.288;2022-09-09T04:58:05;5.80;;;2.10;;
9160;SDS011;4615;51.340;8.288;2022-09-09T05:00:32;4.90;;;1.87;;
9160;SDS011;4615;51.340;8.288;2022-09-09T05:02:58;4.70;;;1.80;;
9160;SDS011;4615;51.340;8.288;2022-09-09T05:05:28;8.40;;;2.23;;
9160;SDS011;4615;51.340;8.288;2022-09-09T05:07:59;5.43;;;1.90;;
9160;SDS011;4615;51.340;8.288;2022-09-09T05:10:26;3.70;;;1.70;;
9160;SDS011;4615;51.340;8.288;2022-09-09T05:12:54;4.83;;;2.13;;
9160;SDS011;4615;51.340;8.288;2022-09-09T05:15:21;4.67;;;1.50;;
9160;SDS011;4615;51.340;8.288;2022-09-09T05:17:47;4.80;;;1.90;;
9160;SDS011;4615;51.340;8.288;2022-09-09T05:20:14;3.23;;;1.60;;
9160;SDS011;4615;51.340;8.288;2022-09-09T05:22:40;3.90;;;1.83;;
9160;SDS011;4615;51.340;8.288;2022-09-09T05:25:07;4.03;;;2.10;;
9160;SDS011;4615;51.340;8.288;2022-09-09T05:27:33;4.80;;;1.97;;
9160;SDS011;4615;51.340;8.288;2022-09-09T05:30:01;3.37;;;1.63;;
9160;SDS011;4615;51.340;8.288;2022-09-09T05:32:29;4.27;;;2.00;;
9160;SDS011;4615;51.340;8.288;2022-09-09T05:34:57;5.33;;;1.80;;
9160;SDS011;4615;51.340;8.288;2022-09-09T05:37:24;3.97;;;1.60;;
9160;SDS011;4615;51.340;8.288;2022-09-09T05:39:50;4.13;;;1.50;;
9160;SDS011;4615;51.340;8.288;2022-09-09T05:42:16;4.80;;;2.10;;
9160;SDS011;4615;51.340;8.288;2022-09-09T05:44:43;5.43;;;1.90;;
9160;SDS011;4615;51.340;8.288;2022-09-09T05:47:11;4.27;;;1.70;;
9160;SDS011;4615;51.340;8.288;2022-09-09T05:49:37;3.13;;;1.60;;
9160;SDS011;4615;51.340;8.288;2022-09-09T05:52:04;4.27;;;1.67;;
9160;SDS011;4615;51.340;8.288;2022-09-09T05:54:31;5.57;;;2.00;;
9160;SDS011;4615;51.340;8.288;2022-09-09T05:56:57;4.47;;;1.60;;
9160;SDS011;4615;51.340;8.288;2022-09-09T05:59:24;6.37;;;1.90;;
9160;SDS011;4615;51.340;8.288;2022-09-09T06:01:50;5.93;;;1.90;;
9160;SDS011;4615;51.340;8.288;2022-09-09T06:04:18;4.17;;;1.67;;
9160;SDS011;4615;51.340;8.288;2022-09-09T06:06:50;5.63;;;1.77;;
9160;SDS011;4615;51.340;8.288;2022-09-09T06:09:16;3.70;;;1.83;;
9160;SDS011;4615;51.340;8.288;2022-09-09T06:11:43;5.80;;;1.77;;
9160;SDS011;4615;51.340;8.288;2022-09-09T06:14:09;6.33;;;2.20;;
9160;SDS011;4615;51.340;8.288;2022-09-09T06:16:36;4.10;;;1.83;;
9160;SDS011;4615;51.340;8.288;2022-09-09T06:19:03;2.97;;;1.70;;
9160;SDS011;4615;51.340;8.288;2022-09-09T06:21:32;3.37;;;1.50;;
9160;SDS011;4615;51.340;8.288;2022-09-09T06:23:58;5.83;;;2.03;;
9160;SDS011;4615;51.340;8.288;2022-09-09T06:26:26;3.63;;;1.53;;
9160;SDS011;4615;51.340;8.288;2022-09-09T06:28:52;3.30;;;1.60;;
9160;SDS011;4615;51.340;8.288;2022-09-09T06:31:20;6.73;;;1.83;;
9160;SDS011;4615;51.340;8.288;2022-09-09T06:33:47;6.40;;;1.77;;
9160;SDS011;4615;51.340;8.288;2022-09-09T06:36:15;6.37;;;1.73;;
9160;SDS011;4615;51.340;8.288;2022-09-09T06:38:43;6.30;;;2.17;;
9160;SDS011;4615;51.340;8.288;2022-09-09T06:41:10;4.57;;;1.60;;
9160;SDS011;4615;51.340;8.288;2022-09-09T06:43:37;4.87;;;1.80;;
9160;SDS011;4615;51.340;8.288;2022-09-09T06:46:05;2.70;;;1.37;;
9160;SDS011;4615;51.340;8.288;2022-09-09T06:48:33;3.67;;;1.93;;
9160;SDS011;4615;51.340;8.288;2022-09-09T06:51:00;6.40;;;1.93;;
9160;SDS011;4615;51.340;8.288;2022-09-09T06:53:26;2.73;;;1.80;;
9160;SDS011;4615;51.340;8.288;2022-09-09T06:55:54;3.87;;;1.93;;
9160;SDS011;4615;51.340;8.288;2022-09-09T06:58:21;4.37;;;1.90;;
9160;SDS011;4615;51.340;8.288;2022-09-09T07:00:48;5.20;;;1.90;;
9160;SDS011;4615;51.340;8.288;2022-09-09T07:03:14;3.63;;;1.90;;
9160;SDS011;4615;51.340;8.288;2022-09-09T07:05:41;5.47;;;1.97;;
9160;SDS011;4615;51.340;8.288;2022-09-09T07:08:09;5.33;;;2.10;;
9160;SDS011;4615;51.340;8.288;2022-09-09T07:10:36;5.97;;;2.13;;
9160;SDS011;4615;51.340;8.288;2022-09-09T07:13:04;6.60;;;2.00;;
9160;SDS011;4615;51.340;8.288;2022-09-09T07:15:32;5.53;;;2.30;;
9160;SDS011;4615;51.340;8.288;2022-09-09T07:18:00;3.10;;;1.63;;
9160;SDS011;4615;51.340;8.288;2022-09-09T07:20:27;4.27;;;1.87;;
9160;SDS011;4615;51.340;8.288;2022-09-09T07:22:54;5.93;;;2.30;;
9160;SDS011;4615;51.340;8.288;2022-09-09T07:25:20;4.97;;;1.97;;
9160;SDS011;4615;51.340;8.288;2022-09-09T07:27:47;3.50;;;1.70;;
9160;SDS011;4615;51.340;8.288;2022-09-09T07:30:15;4.83;;;1.93;;
9160;SDS011;4615;51.340;8.288;2022-09-09T07:32:43;4.60;;;1.77;;
9160;SDS011;4615;51.340;8.288;2022-09-09T07:35:09;4.93;;;1.80;;
9160;SDS011;4615;51.340;8.288;2022-09-09T07:37:36;6.50;;;2.20;;
9160;SDS011;4615;51.340;8.288;2022-09-09T07:40:02;3.93;;;1.90;;
9160;SDS011;4615;51.340;8.288;2022-09-09T07:42:30;7.30;;;1.87;;
9160;SDS011;4615;51.340;8.288;2022-09-09T07:44:56;7.77;;;2.27;;
9160;SDS011;4615;51.340;8.288;2022-09-09T07:47:24;3.80;;;1.90;;
9160;SDS011;4615;51.340;8.288;2022-09-09T07:49:50;2.90;;;2.00;;
9160;SDS011;4615;51.340;8.288;2022-09-09T07:52:17;5.67;;;1.93;;
9160;SDS011;4615;51.340;8.288;2022-09-09T07:54:45;5.43;;;1.90;;
9160;SDS011;4615;51.340;8.288;2022-09-09T07:57:11;3.07;;;1.57;;
9160;SDS011;4615;51.340;8.288;2022-09-09T07:59:38;3.57;;;2.10;;
9160;SDS011;4615;51.340;8.288;2022-09-09T08:02:04;6.20;;;1.80;;
9160;SDS011;4615;51.340;8.288;2022-09-09T08:04:33;5.37;;;2.10;;
9160;SDS011;4615;51.340;8.288;2022-09-09T08:07:00;6.13;;;1.93;;
9160;SDS011;4615;51.340;8.288;2022-09-09T08:09:28;4.83;;;1.70;;
9160;SDS011;4615;51.340;8.288;2022-09-09T08:11:54;4.67;;;1.60;;
9160;SDS011;4615;51.340;8.288;2022-09-09T08:14:21;4.23;;;1.87;;
9160;SDS011;4615;51.340;8.288;2022-09-09T08:16:48;6.43;;;2.13;;
9160;SDS011;4615;51.340;8.288;2022-09-09T08:19:16;5.03;;;1.57;;
9160;SDS011;4615;51.340;8.288;2022-09-09T08:21:44;3.80;;;1.63;;
9160;SDS011;4615;51.340;8.288;2022-09-09T08:24:11;3.23;;;1.50;;
9160;SDS011;4615;51.340;8.288;2022-09-09T08:26:39;4.00;;;1.90;;
9160;SDS011;4615;51.340;8.288;2022-09-09T08:29:07;4.83;;;1.77;;
9160;SDS011;4615;51.340;8.288;2022-09-09T08:31:34;3.90;;;1.63;;
9160;SDS011;4615;51.340;8.288;2022-09-09T08:34:02;6.37;;;1.83;;
9160;SDS011;4615;51.340;8.288;2022-09-09T08:36:29;5.40;;;1.97;;
9160;SDS011;4615;51.340;8.288;2022-09-09T08:38:59;6.37;;;2.13;;
9160;SDS011;4615;51.340;8.288;2022-09-09T08:44:09;4.60;;;1.77;;
9160;SDS011;4615;51.340;8.288;2022-09-09T08:46:39;4.13;;;2.00;;
9160;SDS011;4615;51.340;8.288;2022-09-09T08:49:11;4.90;;;1.80;;
9160;SDS011;4615;51.340;8.288;2022-09-09T08:51:42;7.40;;;2.10;;
9160;SDS011;4615;51.340;8.288;2022-09-09T08:54:10;8.43;;;1.80;;
9160;SDS011;4615;51.340;8.288;2022-09-09T08:56:37;4.40;;;1.70;;
9160;SDS011;4615;51.340;8.288;2022-09-09T08:59:03;4.50;;;1.30;;
9160;SDS011;4615;51.340;8.288;2022-09-09T09:01:41;3.50;;;1.40;;
9160;SDS011;4615;51.340;8.288;2022-09-09T09:04:14;3.43;;;1.60;;
9160;SDS011;4615;51.340;8.288;2022-09-09T09:06:46;4.30;;;1.57;;
9160;SDS011;4615;51.340;8.288;2022-09-09T09:09:16;4.03;;;1.50;;
9160;SDS011;4615;51.340;8.288;2022-09-09T09:11:45;4.83;;;1.50;;
9160;SDS011;4615;51.340;8.288;2022-09-09T09:14:15;2.47;;;1.33;;
9160;SDS011;4615;51.340;8.288;2022-09-09T09:16:46;3.17;;;1.40;;
9160;SDS011;4615;51.340;8.288;2022-09-09T09:19:15;5.13;;;2.00;;
9160;SDS011;4615;51.340;8.288;2022-09-09T09:21:43;4.50;;;1.53;;
9160;SDS011;4615;51.340;8.288;2022-09-09T09:24:13;3.17;;;1.30;;
9160;SDS011;4615;51.340;8.288;2022-09-09T09:26:43;4.90;;;1.80;;
9160;SDS011;4615;51.340;8.288;2022-09-09T09:29:10;4.40;;;1.57;;
9160;SDS011;4615;51.340;8.288;2022-09-09T09:31:38;4.33;;;1.33;;
9160;SDS011;4615;51.340;8.288;2022-09-09T09:34:04;3.40;;;1.20;;
9160;SDS011;4615;51.340;8.288;2022-09-09T09:36:34;4.67;;;1.33;;
9160;SDS011;4615;51.340;8.288;2022-09-09T09:39:02;6.40;;;1.80;;
9160;SDS011;4615;51.340;8.288;2022-09-09T09:41:30;5.37;;;1.37;;
9160;SDS011;4615;51.340;8.288;2022-09-09T09:43:58;2.77;;;1.20;;
9160;SDS011;4615;51.340;8.288;2022-09-09T09:46:26;3.77;;;1.37;;
9160;SDS011;4615;51.340;8.288;2022-09-09T09:48:56;4.77;;;1.53;;
9160;SDS011;4615;51.340;8.288;2022-09-09T09:51:23;4.40;;;1.60;;
9160;SDS011;4615;51.340;8.288;2022-09-09T09:53:50;3.67;;;1.57;;
9160;SDS011;4615;51.340;8.288;2022-09-09T09:56:25;4.63;;;1.57;;
9160;SDS011;4615;51.340;8.288;2022-09-09T09:58:52;4.63;;;1.63;;
9160;SDS011;4615;51.340;8.288;2022-09-09T10:01:21;4.43;;;1.40;;
9160;SDS011;4615;51.340;8.288;2022-09-09T10:03:50;3.97;;;1.60;;
9160;SDS011;4615;51.340;8.288;2022-09-09T10:06:17;5.73;;;1.47;;
9160;SDS011;4615;51.340;8.288;2022-09-09T10:08:44;2.70;;;1.30;;
9160;SDS011;4615;51.340;8.288;2022-09-09T10:11:24;4.27;;;1.70;;
9160;SDS011;4615;51.340;8.288;2022-09-09T10:13:54;4.93;;;1.70;;
9160;SDS011;4615;51.340;8.288;2022-09-09T10:16:30;5.80;;;1.60;;
9160;SDS011;4615;51.340;8.288;2022-09-09T10:19:03;4.63;;;1.70;;
9160;SDS011;4615;51.340;8.288;2022-09-09T10:26:56;4.13;;;1.37;;
9160;SDS011;4615;51.340;8.288;2022-09-09T10:29:34;4.70;;;1.50;;
9160;SDS011;4615;51.340;8.288;2022-09-09T10:32:09;4.40;;;1.63;;
9160;SDS011;4615;51.340;8.288;2022-09-09T10:34:42;2.87;;;1.40;;
9160;SDS011;4615;51.340;8.288;2022-09-09T10:37:13;3.17;;;1.40;;
9160;SDS011;4615;51.340;8.288;2022-09-09T10:39:42;4.87;;;1.37;;
9160;SDS011;4615;51.340;8.288;2022-09-09T10:42:09;4.30;;;1.63;;
9160;SDS011;4615;51.340;8.288;2022-09-09T10:44:45;4.87;;;1.70;;
9160;SDS011;4615;51.340;8.288;2022-09-09T10:47:18;3.33;;;1.30;;
9160;SDS011;4615;51.340;8.288;2022-09-09T10:49:54;4.90;;;1.50;;
9160;SDS011;4615;51.340;8.288;2022-09-09T10:52:27;3.07;;;1.40;;
9160;SDS011;4615;51.340;8.288;2022-09-09T10:54:57;3.70;;;1.70;;
9160;SDS011;4615;51.340;8.288;2022-09-09T10:57:27;3.70;;;1.60;;
9160;SDS011;4615;51.340;8.288;2022-09-09T10:59:58;4.67;;;1.77;;
9160;SDS011;4615;51.340;8.288;2022-09-09T11:02:26;3.00;;;1.60;;
9160;SDS011;4615;51.340;8.288;2022-09-09T11:04:54;6.50;;;1.97;;
9160;SDS011;4615;51.340;8.288;2022-09-09T11:07:25;5.80;;;1.80;;
9160;SDS011;4615;51.340;8.288;2022-09-09T11:09:54;2.83;;;1.40;;
9160;SDS011;4615;51.340;8.288;2022-09-09T11:12:23;3.23;;;1.50;;
9160;SDS011;4615;51.340;8.288;2022-09-09T11:14:53;4.07;;;1.57;;
9160;SDS011;4615;51.340;8.288;2022-09-09T11:17:23;4.23;;;1.67;;
9160;SDS011;4615;51.340;8.288;2022-09-09T11:19:51;3.73;;;1.60;;
9160;SDS011;4615;51.340;8.288;2022-09-09T11:22:20;5.30;;;1.90;;
9160;SDS011;4615;51.340;8.288;2022-09-09T11:24:49;5.63;;;1.90;;
9160;SDS011;4615;51.340;8.288;2022-09-09T11:27:17;4.60;;;1.60;;
9160;SDS011;4615;51.340;8.288;2022-09-09T11:29:50;4.37;;;1.50;;
9160;SDS011;4615;51.340;8.288;2022-09-09T11:35:02;5.20;;;1.57;;
9160;SDS011;4615;51.340;8.288;2022-09-09T11:37:45;2.23;;;1.17;;
9160;SDS011;4615;51.340;8.288;2022-09-09T11:40:16;3.23;;;1.47;;
9160;SDS011;4615;51.340;8.288;2022-09-09T11:42:43;2.83;;;1.30;;
9160;SDS011;4615;51.340;8.288;2022-09-09T11:45:19;3.60;;;1.60;;
9160;SDS011;4615;51.340;8.288;2022-09-09T11:47:51;2.60;;;1.23;;
9160;SDS011;4615;51.340;8.288;2022-09-09T11:50:28;3.23;;;1.30;;
9160;SDS011;4615;51.340;8.288;2022-09-09T11:53:03;1.97;;;1.37;;
9160;SDS011;4615;51.340;8.288;2022-09-09T11:55:30;2.73;;;1.30;;
9160;SDS011;4615;51.340;8.288;2022-09-09T11:57:58;5.33;;;1.50;;
9160;SDS011;4615;51.340;8.288;2022-09-09T12:00:32;2.70;;;1.50;;
9160;SDS011;4615;51.340;8.288;2022-09-09T12:02:59;2.47;;;1.23;;
9160;SDS011;4615;51.340;8.288;2022-09-09T12:05:35;5.10;;;1.47;;
9160;SDS011;4615;51.340;8.288;2022-09-09T12:08:03;2.73;;;1.43;;
9160;SDS011;4615;51.340;8.288;2022-09-09T12:10:30;3.47;;;1.20;;
9160;SDS011;4615;51.340;8.288;2022-09-09T12:13:07;4.93;;;1.33;;
9160;SDS011;4615;51.340;8.288;2022-09-09T12:15:34;2.80;;;1.20;;
9160;SDS011;4615;51.340;8.288;2022-09-09T12:18:00;5.47;;;1.77;;
9160;SDS011;4615;51.340;8.288;2022-09-09T12:20:30;3.33;;;1.40;;
9160;SDS011;4615;51.340;8.288;2022-09-09T12:23:16;1.90;;;0.97;;
9160;SDS011;4615;51.340;8.288;2022-09-09T12:25:58;5.63;;;1.53;;
9160;SDS011;4615;51.340;8.288;2022-09-09T12:28:27;2.07;;;1.00;;
9160;SDS011;4615;51.340;8.288;2022-09-09T12:30:58;2.53;;;1.23;;
9160;SDS011;4615;51.340;8.288;2022-09-09T12:33:32;3.63;;;1.33;;
9160;SDS011;4615;51.340;8.288;2022-09-09T12:35:59;2.20;;;1.00;;
9160;SDS011;4615;51.340;8.288;2022-09-09T12:38:29;2.20;;;1.20;;
9160;SDS011;4615;51.340;8.288;2022-09-09T12:40:58;2.60;;;1.10;;
9160;SDS011;4615;51.340;8.288;2022-09-09T12:43:26;3.27;;;1.40;;
9160;SDS011;4615;51.340;8.288;2022-09-09T12:45:53;2.40;;;1.10;;
9160;SDS011;4615;51.340;8.288;2022-09-09T12:48:24;3.40;;;1.30;;
9160;SDS011;4615;51.340;8.288;2022-09-09T12:50:51;4.03;;;1.57;;
9160;SDS011;4615;51.340;8.288;2022-09-09T12:53:20;4.83;;;1.43;;
9160;SDS011;4615;51.340;8.288;2022-09-09T12:55:51;5.37;;;1.13;;
9160;SDS011;4615;51.340;8.288;2022-09-09T12:58:18;3.70;;;1.10;;
9160;SDS011;4615;51.340;8.288;2022-09-09T13:00:48;3.70;;;1.17;;
9160;SDS011;4615;51.340;8.288;2022-09-09T13:03:17;3.83;;;1.53;;
9160;SDS011;4615;51.340;8.288;2022-09-09T13:05:45;2.30;;;1.13;;
9160;SDS011;4615;51.340;8.288;2022-09-09T13:08:13;2.53;;;1.13;;
9160;SDS011;4615;51.340;8.288;2022-09-09T13:10:40;2.93;;;1.40;;
9160;SDS011;4615;51.340;8.288;2022-09-09T13:13:14;3.30;;;1.30;;
9160;SDS011;4615;51.340;8.288;2022-09-09T13:15:47;2.13;;;1.20;;
9160;SDS011;4615;51.340;8.288;2022-09-09T13:18:14;3.57;;;1.23;;
9160;SDS011;4615;51.340;8.288;2022-09-09T13:20:45;3.87;;;1.20;;
9160;SDS011;4615;51.340;8.288;2022-09-09T13:23:11;3.93;;;1.73;;
9160;SDS011;4615;51.340;8.288;2022-09-09T13:25:38;3.43;;;1.30;;
9160;SDS011;4615;51.340;8.288;2022-09-09T13:28:05;2.93;;;1.40;;
9160;SDS011;4615;51.340;8.288;2022-09-09T13:30:33;3.67;;;1.10;;
9160;SDS011;4615;51.340;8.288;2022-09-09T13:33:20;3.17;;;1.30;;
9160;SDS011;4615;51.340;8.288;2022-09-09T13:35:49;2.93;;;1.30;;
9160;SDS011;4615;51.340;8.288;2022-09-09T13:38:16;5.60;;;1.53;;
9160;SDS011;4615;51.340;8.288;2022-09-09T13:40:51;4.23;;;1.50;;
9160;SDS011;4615;51.340;8.288;2022-09-09T13:43:21;5.60;;;1.40;;
9160;SDS011;4615;51.340;8.288;2022-09-09T13:45:53;2.40;;;1.30;;
9160;SDS011;4615;51.340;8.288;2022-09-09T13:48:21;3.60;;;1.30;;
9160;SDS011;4615;51.340;8.288;2022-09-09T13:50:53;4.37;;;1.50;;
9160;SDS011;4615;51.340;8.288;2022-09-09T13:53:20;4.77;;;1.10;;
9160;SDS011;4615;51.340;8.288;2022-09-09T13:55:46;3.83;;;1.30;;
9160;SDS011;4615;51.340;8.288;2022-09-09T13:58:14;3.30;;;1.10;;
9160;SDS011;4615;51.340;8.288;2022-09-09T14:00:41;2.97;;;1.70;;
9160;SDS011;4615;51.340;8.288;2022-09-09T14:03:10;4.07;;;1.20;;
9160;SDS011;4615;51.340;8.288;2022-09-09T14:05:36;4.90;;;1.60;;
9160;SDS011;4615;51.340;8.288;2022-09-09T14:08:03;2.20;;;1.20;;
9160;SDS011;4615;51.340;8.288;2022-09-09T14:10:29;3.47;;;1.30;;
9160;SDS011;4615;51.340;8.288;2022-09-09T14:12:56;4.63;;;1.50;;
9160;SDS011;4615;51.340;8.288;2022-09-09T14:15:22;2.73;;;1.13;;
9160;SDS011;4615;51.340;8.288;2022-09-09T14:17:48;2.40;;;1.43;;
9160;SDS011;4615;51.340;8.288;2022-09-09T14:20:16;4.07;;;1.30;;
9160;SDS011;4615;51.340;8.288;2022-09-09T14:22:44;3.53;;;1.40;;
9160;SDS011;4615;51.340;8.288;2022-09-09T14:25:10;2.23;;;1.20;;
9160;SDS011;4615;51.340;8.288;2022-09-09T14:27:38;3.40;;;1.13;;
9160;SDS011;4615;51.340;8.288;2022-09-09T14:30:05;2.00;;;1.20;;
9160;SDS011;4615;51.340;8.288;2022-09-09T14:32:32;4.37;;;1.20;;
9160;SDS011;4615;51.340;8.288;2022-09-09T14:34:59;2.83;;;1.25;;
9160;SDS011;4615;51.340;8.288;2022-09-09T14:37:27;2.93;;;1.20;;
9160;SDS011;4615;51.340;8.288;2022-09-09T14:39:56;3.97;;;1.48;;
9160;SDS011;4615;51.340;8.288;2022-09-09T14:42:22;2.47;;;1.30;;
9160;SDS011;4615;51.340;8.288;2022-09-09T14:44:48;4.23;;;1.30;;
9160;SDS011;4615;51.340;8.288;2022-09-09T14:47:15;2.27;;;1.20;;
9160;SDS011;4615;51.340;8.288;2022-09-09T14:49:41;2.38;;;1.30;;
9160;SDS011;4615;51.340;8.288;2022-09-09T14:52:08;2.50;;;1.30;;
9160;SDS011;4615;51.340;8.288;2022-09-09T14:54:36;3.50;;;1.17;;
9160;SDS011;4615;51.340;8.288;2022-09-09T14:57:02;2.97;;;1.35;;
9160;SDS011;4615;51.340;8.288;2022-09-09T14:59:29;2.07;;;0.90;;
9160;SDS011;4615;51.340;8.288;2022-09-09T15:01:55;2.77;;;0.80;;
9160;SDS011;4615;51.340;8.288;2022-09-09T15:04:22;1.53;;;1.00;;
9160;SDS011;4615;51.340;8.288;2022-09-09T15:06:49;2.08;;;1.10;;
9160;SDS011;4615;51.340;8.288;2022-09-09T15:09:17;1.37;;;0.93;;
9160;SDS011;4615;51.340;8.288;2022-09-09T15:11:45;1.37;;;0.90;;
9160;SDS011;4615;51.340;8.288;2022-09-09T15:14:11;2.78;;;1.10;;
9160;SDS011;4615;51.340;8.288;2022-09-09T15:16:38;1.73;;;0.80;;
9160;SDS011;4615;51.340;8.288;2022-09-09T15:19:05;1.60;;;0.87;;
9160;SDS011;4615;51.340;8.288;2022-09-09T15:21:32;3.17;;;1.07;;
9160;SDS011;4615;51.340;8.288;2022-09-09T15:23:59;1.98;;;0.93;;
9160;SDS011;4615;51.340;8.288;2022-09-09T15:26:25;3.95;;;1.20;;
9160;SDS011;4615;51.340;8.288;2022-09-09T15:28:53;2.00;;;1.03;;
9160;SDS011;4615;51.340;8.288;2022-09-09T15:31:20;1.67;;;1.10;;
9160;SDS011;4615;51.340;8.288;2022-09-09T15:33:47;2.83;;;1.03;;
9160;SDS011;4615;51.340;8.288;2022-09-09T15:36:14;2.97;;;1.20;;